| time (UTC) | temp F | wind direction | speed knots | gust knots | rain 1hr in | rain 24hr in | rain mn in | humidity % | barometer mb |
| 20260508072154 | 51 | 320 | 0.9 | 0.0 | 0.00 | 0.00 | 0.00 | 80 | 1017.2 |
| 20260508065521 | 50 | 330 | 0.9 | 0.0 | 0.00 | 0.00 | 0.00 | 83 | 1017.0 |
| 20260508062731 | 50 | 330 | 0.9 | 0.0 | 0.00 | 0.00 | 0.00 | 83 | 1017.0 |
| 20260508060146 | 50 | 340 | 0.9 | 0.0 | 0.00 | 0.00 | 0.00 | 85 | 1016.5 |
| 20260508053426 | 50 | 340 | 0.9 | 0.0 | 0.00 | 0.00 | 0.00 | 85 | 1016.5 |
| 20260508044026 | 50 | 340 | 0.9 | 0.0 | 0.00 | 0.00 | 0.00 | 81 | 1016.3 |
| 20260508041421 | 50 | 350 | 0.9 | 0.0 | 0.00 | 0.00 | 0.00 | 81 | 1016.1 |
| 20260508034628 | 50 | 350 | 0.9 | 0.0 | 0.00 | 0.00 | 0.00 | 81 | 1016.1 |
| 20260508032039 | 50 | 350 | 0.9 | 0.0 | 0.00 | 0.00 | 0.00 | 81 | 1016.1 |
| 20260508022706 | 50 | 350 | 1.7 | 0.0 | 0.00 | 0.00 | 0.00 | 79 | 1016.0 |
| 20260508015828 | 51 | 20 | 0.9 | 0.0 | 0.00 | 0.00 | 0.00 | 76 | 1015.9 |
| 20260508013053 | 51 | 20 | 0.9 | 0.0 | 0.00 | 0.00 | 0.00 | 76 | 1015.9 |
| 20260508010306 | 51 | 360 | 1.7 | 0.0 | 0.00 | 0.00 | 0.00 | 76 | 1015.7 |
| 20260508003601 | 51 | 360 | 1.7 | 0.0 | 0.00 | 0.00 | 0.00 | 76 | 1015.7 |
| 20260508000806 | 52 | 30 | 1.7 | 0.0 | 0.00 | 0.00 | 0.00 | 74 | 1015.7 |
| 20260507234028 | 52 | 30 | 1.7 | 0.0 | 0.00 | 0.00 | 0.00 | 74 | 1015.7 |
| 20260507231516 | 52 | 30 | 1.7 | 0.0 | 0.00 | 0.00 | 0.00 | 74 | 1015.7 |
| 20260507224840 | 53 | 360 | 0.9 | 0.0 | 0.00 | 0.00 | 0.00 | 74 | 1015.0 |
| 20260507222126 | 53 | 360 | 0.9 | 0.0 | 0.00 | 0.00 | 0.00 | 74 | 1015.0 |
| 20260507215256 | 54 | 350 | 0.9 | 0.0 | 0.00 | 0.00 | 0.00 | 74 | 1014.8 |
| 20260507212728 | 54 | 350 | 0.9 | 0.0 | 0.00 | 0.00 | 0.00 | 74 | 1014.8 |
| 20260507210145 | 54 | 360 | 0.9 | 0.0 | 0.00 | 0.00 | 0.00 | 73 | 1014.8 |
| 20260507203251 | 54 | 360 | 0.9 | 0.0 | 0.00 | 0.00 | 0.00 | 73 | 1014.8 |
| 20260507200559 | 54 | 330 | 0.9 | 0.0 | 0.00 | 0.00 | 0.00 | 74 | 1014.5 |
| 20260507193941 | 54 | 330 | 0.9 | 0.0 | 0.00 | 0.00 | 0.00 | 74 | 1014.5 |
| 20260507191149 | 56 | 320 | 0.9 | 0.0 | 0.00 | 0.00 | 0.00 | 73 | 1013.8 |
| 20260507184440 | 56 | 320 | 0.9 | 0.0 | 0.00 | 0.00 | 0.00 | 73 | 1013.8 |
| 20260507181705 | 56 | 320 | 0.9 | 0.0 | 0.00 | 0.00 | 0.00 | 73 | 1013.8 |
| 20260507174945 | 56 | 320 | 1.7 | 0.0 | 0.00 | 0.00 | 0.00 | 72 | 1012.7 |
| 20260507165536 | 57 | 310 | 0.9 | 0.0 | 0.00 | 0.00 | 0.00 | 70 | 1012.8 |
| 20260507162831 | 57 | 310 | 0.9 | 0.0 | 0.00 | 0.00 | 0.00 | 70 | 1012.8 |
| 20260507160106 | 58 | 300 | 1.7 | 0.0 | 0.00 | 0.00 | 0.00 | 68 | 1012.8 |
| 20260507153416 | 58 | 300 | 1.7 | 0.0 | 0.00 | 0.00 | 0.00 | 68 | 1012.8 |
| 20260507150901 | 59 | 310 | 2.6 | 0.0 | 0.00 | 0.00 | 0.00 | 67 | 1012.2 |
| 20260507144206 | 59 | 310 | 2.6 | 0.0 | 0.00 | 0.00 | 0.00 | 67 | 1012.2 |
| 20260507141446 | 59 | 310 | 2.6 | 0.0 | 0.00 | 0.00 | 0.00 | 67 | 1012.2 |
| 20260507134646 | 59 | 290 | 1.7 | 0.0 | 0.00 | 0.00 | 0.00 | 72 | 1012.1 |
| 20260507125355 | 60 | 300 | 2.6 | 0.0 | 0.00 | 0.00 | 0.00 | 68 | 1011.9 |
| 20260507122607 | 60 | 300 | 2.6 | 0.0 | 0.00 | 0.00 | 0.00 | 68 | 1011.9 |
| 20260507120126 | 56 | 290 | 0.9 | 0.0 | 0.00 | 0.00 | 0.00 | 82 | 1011.7 |
| 20260507113546 | 56 | 290 | 0.9 | 0.0 | 0.00 | 0.00 | 0.00 | 82 | 1011.7 |
| 20260507111021 | 57 | 290 | 1.7 | 0.0 | 0.00 | 0.00 | 0.00 | 79 | 1011.1 |
| 20260507104315 | 57 | 290 | 1.7 | 0.0 | 0.00 | 0.00 | 0.00 | 79 | 1011.1 |
| 20260507101520 | 57 | 290 | 1.7 | 0.0 | 0.00 | 0.00 | 0.00 | 79 | 1011.1 |
| 20260507094613 | 60 | 300 | 2.6 | 0.0 | 0.00 | 0.00 | 0.00 | 75 | 1010.1 |
| 20260507085348 | 61 | 300 | 2.6 | 0.0 | 0.00 | 0.00 | 0.00 | 74 | 1009.5 |
| 20260507082859 | 61 | 300 | 2.6 | 0.0 | 0.00 | 0.00 | 0.00 | 74 | 1009.5 |
| 20260507080341 | 61 | 300 | 1.7 | 0.0 | 0.00 | 0.00 | 0.00 | 76 | 1008.6 |
| 20260507073721 | 61 | 300 | 1.7 | 0.0 | 0.00 | 0.00 | 0.00 | 76 | 1008.6 |